Aeroporto :
LOGIN :

Iscrizione | Disclaimer

   EN    FR    IT 

 










Sommario :    VFR   VFR Marginale   IFR   IFR Intensivo   IFR Molto Intensivo
Visibilità : 
Base nubi : 
>= 8 km
>= 3000ft
5 / 8 km
1000 / 3000 ft
1500m / 5 km
500 / 1000 ft
800 / 1500m
200 / 500 ft
< 800m
< 200 ft
Simboli :   Temporali  Nebbia  Neve Forte  Precipitazioni Forti  Vento > 20 kt
SIGMETs :   Varie  Temporali  Ghiacco  Turbolenza  Onda orograficha  Ceneri Vulcaniche







- Altitudine del aeroporto : 184 ft
- Codice IATA : BRU


EBBR - Bruxelles

ULTIMO METAR :
  • 180720Z 06005KT CAVOK M01/M02 Q1028 NOSIG

METARs OBSOLETI :
  • 180650Z 07004KT CAVOK M01/M02 Q1028 NOSIG
  • 180620Z 06004KT CAVOK M01/M02 Q1028 NOSIG
  • 180550Z 07005KT CAVOK 00/M02 Q1028 NOSIG
  • 180520Z 08005KT CAVOK 01/M02 Q1028 NOSIG
  • 180450Z 07005KT CAVOK 01/M02 Q1028 NOSIG

TAF TAF EBBR
Valido dal 18 a 06 ore il 19 a 12 ore UTC


180510Z 1806/1912 06009KT CAVOK
TEMPO 1904/1908 4500 -DZ BR BKN006
Nessun NOTAM noto per questo aeroporto.



MetMap, La meteo Aeronautica in un colpo d'occhio ! - Copyright ORBIFLY Dicembre 2007 - Disclaimer

ORBIFLY MET'MAP TEAM :

Programmazione e sviluppo : Alexandra Zaïnal
Concezione e sviluppo : Baudouin d'Aumeries
Co-Programmazione e sviluppo : Marc-Olivier Méhu
Supporto tecnico e logistico : Manuel Goepfert
Aiuto per la traduzione : Arnaldo La Scala

Contatto : metmap@orbifly.com




FONTI E CREDITI :

   NOAA